This is the latest recevied weather packets stored in our database for station/object K9YK-13. If no packets are shown the sender has not sent any weather packets the latest 10 day(s).
| Time | Temp. | Humidity | Pressure | Rain* | Wind** | Luminosity | Snow |
|---|---|---|---|---|---|---|---|
| 1777606872 | 10.56° C | 94% | 0 hPa | 0 mm | - | - | - |
| 1777606572 | 11.11° C | 92% | 0 hPa | 0 mm | - | - | - |
| 1777606272 | 10° C | 91% | 0 hPa | 0 mm | - | - | - |
| 1777605972 | 10.56° C | 91% | 0 hPa | 0 mm | - | - | - |
| 1777605672 | 10° C | 90% | 0 hPa | 0 mm | - | - | - |
| 1777605372 | 11.11° C | 90% | 0 hPa | 0 mm | - | - | - |
| 1777605072 | 10° C | 90% | 0 hPa | 0 mm | - | - | - |
| 1777604772 | 10° C | 89% | 0 hPa | 0 mm | - | - | - |
| 1777604472 | 10.56° C | 89% | 0 hPa | 0 mm | - | - | - |
| 1777604172 | 10.56° C | 88% | 0 hPa | 0 mm | - | - | - |
| 1777603872 | 10.56° C | 86% | 0 hPa | 0 mm | - | - | - |
| 1777603572 | 11.67° C | 85% | 0 hPa | 0 mm | - | - | - |
| 1777603272 | 11.11° C | 84% | 0 hPa | 0 mm | - | - | - |
| 1777602972 | 11.67° C | 83% | 0 hPa | 0 mm | - | - | - |
| 1777602672 | 11.67° C | 82% | 0 hPa | 0 mm | - | - | - |
| 1777602372 | 11.11° C | 82% | 0 hPa | 0 mm | - | - | - |
| 1777585872 | 16.11° C | 51% | 0 hPa | 0 mm | - | - | - |
| 1777584672 | 16.11° C | 50% | 0 hPa | 0 mm | - | - | - |
| 1777584372 | 16.67° C | 48% | 0 hPa | 0 mm | - | - | - |
| 1777584072 | 16.11° C | 50% | 0 hPa | 0 mm | - | - | - |
| 1777583772 | 16.11° C | 50% | 0 hPa | 0 mm | - | - | - |
| 1777583172 | 17.78° C | 51% | 0 hPa | 0 mm | - | - | - |
| 1777582872 | 17.78° C | 52% | 0 hPa | 0 mm | - | - | - |
| 1777580172 | 17.78° C | 54% | 0 hPa | 0 mm | - | - | - |
| 1777579872 | 17.22° C | 53% | 0 hPa | 0 mm | - | - | - |
* Rain latest hour (hover to see other rain measurements)
** Current wind speed in m/s (hover to see current wind gust speed)